createdAt,value
2024-03-14T00:08:54.553Z,2768.959731543624
2024-03-14T00:12:19.903Z,2834.3959731543623
2024-03-14T00:15:46.361Z,2754.442953020134
2024-03-14T00:20:36.287Z,2596.4295302013425
2024-03-14T00:24:00.958Z,2607.48322147651
2024-03-14T00:27:41.105Z,2591.3154362416108
2024-03-14T00:31:18.358Z,2530.06711409396
2024-03-14T00:35:02.391Z,2394.5637583892617
2024-03-14T00:38:55.735Z,2455.530201342282
2024-03-14T00:43:15.400Z,2302.8523489932886
2024-03-14T00:46:46.488Z,2284.5704697986575
2024-03-14T00:50:16.300Z,2280.6845637583892
2024-03-14T00:53:52.932Z,2255.013422818792
2024-03-14T00:58:40.305Z,2235.8456375838928
2024-03-14T01:02:15.069Z,2164.6711409395975
2024-03-14T01:05:54.853Z,2110.691275167785
2024-03-14T01:18:36.315Z,2073.201342281879
2024-03-14T01:22:24.476Z,2025.0
2024-03-14T01:35:11.929Z,2046.1006711409395
2024-03-14T01:40:08.804Z,2157.9261744966443
2024-03-14T01:43:52.520Z,1980.744966442953
2024-03-14T01:47:41.593Z,2014.3489932885907
2024-03-14T01:51:13.253Z,1965.503355704698
2024-03-14T01:56:56.145Z,1960.4093959731545
2024-03-14T02:00:35.814Z,1965.1610738255033
2024-03-14T02:06:32.376Z,1961.1342281879195
2024-03-14T02:10:31.748Z,1965.020134228188
2024-03-14T02:16:24.549Z,1941.6644295302012
2024-03-14T02:19:57.013Z,2012.3557046979865
2024-03-14T02:23:25.935Z,2028.4228187919464
2024-03-14T02:26:55.948Z,1875.241610738255
2024-03-14T02:31:49.370Z,1928.758389261745
2024-03-14T02:38:19.561Z,1938.8657718120805
2024-03-14T02:44:46.147Z,1808.5570469798658
2024-03-14T02:49:50.159Z,1916.234899328859
2024-03-14T02:58:09.258Z,1833.1812080536913
2024-03-14T03:01:59.652Z,1851.6644295302012
2024-03-14T03:05:27.584Z,1852.711409395973
2024-03-14T03:18:58.147Z,1846.6711409395973
2024-03-14T03:22:31.852Z,1887.9261744966443
2024-03-14T03:28:06.150Z,1823.03355704698
2024-03-14T03:31:32.435Z,1993.489932885906
2024-03-14T03:34:59.134Z,1808.9395973154362
2024-03-14T03:38:26.874Z,1831.1677852348994
2024-03-14T03:45:56.452Z,1862.3959731543623
2024-03-14T03:53:03.570Z,1872.543624161074
2024-03-14T03:56:34.252Z,1896.523489932886
2024-03-14T04:09:44.083Z,1819.248322147651
2024-03-14T04:13:17.761Z,1850.979865771812
2024-03-14T04:17:09.009Z,1841.3557046979865
2024-03-14T04:20:58.297Z,1827.0402684563758
2024-03-14T04:24:40.947Z,1918.8523489932886
2024-03-14T04:28:22.706Z,1858.9731543624162
2024-03-14T04:32:04.610Z,1836.4228187919464
2024-03-14T04:36:28.319Z,1810.6308724832215
2024-03-14T04:41:48.628Z,1830.6442953020135
2024-03-14T04:45:24.126Z,1782.8053691275168
2024-03-14T04:48:59.853Z,1899.1610738255033
2024-03-14T04:52:33.821Z,1874.8389261744967
2024-03-14T04:56:03.571Z,1795.4496644295302
2024-03-14T04:59:42.004Z,1939.0268456375838
2024-03-14T05:03:12.717Z,1859.7382550335572
2024-03-14T05:06:40.353Z,1916.6778523489934
2024-03-14T05:10:15.023Z,1790.234899328859
2024-03-14T05:13:46.238Z,1814.013422818792
2024-03-14T05:17:14.082Z,1898.1744966442952
2024-03-14T05:22:26.311Z,1898.9194630872482
2024-03-14T05:26:41.039Z,1937.234899328859
2024-03-14T05:30:32.742Z,1816.248322147651
2024-03-14T05:34:16.101Z,1904.3355704697988
2024-03-14T05:38:00.236Z,1911.4630872483222
2024-03-14T05:41:41.747Z,1900.6510067114093
2024-03-14T05:45:25.279Z,1940.1946308724832
2024-03-14T05:50:55.951Z,1975.5906040268455
2024-03-14T05:54:22.096Z,1972.4697986577182
2024-03-14T05:58:00.830Z,2000.5369127516778
2024-03-14T06:04:47.785Z,2001.543624161074
2024-03-14T06:08:12.049Z,2094.181208053691
2024-03-14T06:15:02.023Z,2113.8322147651006
2024-03-14T06:18:31.834Z,2081.4765100671143
2024-03-14T06:21:53.054Z,2268.463087248322
2024-03-14T06:25:48.521Z,2209.228187919463
2024-03-14T06:32:09.248Z,2385.020134228188
2024-03-14T06:35:30.911Z,2198.3557046979868
2024-03-14T06:39:53.430Z,2371.489932885906
2024-03-14T06:43:20.113Z,2381.718120805369
2024-03-14T06:46:54.379Z,2375.2147651006712
2024-03-14T06:50:24.035Z,2363.4563758389263
2024-03-14T06:56:22.618Z,2389.228187919463
2024-03-14T06:59:48.464Z,2456.8590604026845
2024-03-14T07:04:02.362Z,2481.8255033557048
2024-03-14T07:10:31.073Z,2447.8590604026845
2024-03-14T07:14:20.941Z,2501.2348993288592
2024-03-14T07:18:19.280Z,2559.9060402684563
2024-03-14T07:21:56.307Z,2468.4362416107383
2024-03-14T07:25:25.101Z,2401.6711409395975
2024-03-14T07:38:12.090Z,2491.4295302013425
2024-03-14T07:53:38.649Z,2645.9395973154365
2024-03-14T07:58:22.330Z,2453.718120805369
2024-03-14T08:01:47.280Z,2503.8724832214766
2024-03-14T08:05:12.488Z,2494.6107382550335
2024-03-14T08:08:38.710Z,2510.4765100671143
2024-03-14T08:12:04.976Z,2522.818791946309
2024-03-14T08:15:32.523Z,2547.5838926174497
2024-03-14T08:19:05.178Z,2348.718120805369
2024-03-14T08:22:49.194Z,2569.288590604027
2024-03-14T08:26:15.934Z,2546.9194630872485
2024-03-14T08:32:46.218Z,2514.3221476510066
2024-03-14T08:36:22.246Z,2398.691275167785
2024-03-14T08:40:01.738Z,2358.7449664429532
2024-03-14T08:45:34.578Z,2342.778523489933
2024-03-14T08:49:02.498Z,2296.6308724832215
2024-03-14T08:52:50.452Z,2327.577181208054
2024-03-14T09:03:10.432Z,2233.026845637584
2024-03-14T09:06:44.468Z,2241.3221476510066
2024-03-14T09:10:51.083Z,2244.422818791946
2024-03-14T09:15:56.174Z,2218.1677852348994
2024-03-14T09:19:50.927Z,2246.738255033557
2024-03-14T09:28:31.382Z,2209.691275167785
2024-03-14T09:32:49.261Z,2197.93288590604
2024-03-14T09:36:26.396Z,2103.5838926174497
2024-03-14T09:40:06.573Z,2195.1342281879197
2024-03-14T09:43:32.972Z,2140.1073825503354
2024-03-14T09:47:03.144Z,2125.93288590604
2024-03-14T09:59:24.183Z,2194.268456375839
2024-03-14T10:07:22.035Z,2168.1543624161072
2024-03-14T10:11:00.788Z,2080.046979865772
2024-03-14T10:14:29.814Z,2209.1275167785234
2024-03-14T10:18:01.043Z,2119.8523489932886
2024-03-14T10:21:25.633Z,2154.9261744966443
2024-03-14T10:24:51.195Z,2023.751677852349
2024-03-14T10:28:19.254Z,2037.221476510067
2024-03-14T10:31:47.591Z,2077.55033557047
2024-03-14T10:35:16.075Z,2097.6644295302012
2024-03-14T10:41:06.502Z,2011.0671140939598
2024-03-14T10:44:38.033Z,1953.6241610738255
2024-03-14T10:48:06.345Z,1911.8053691275168
2024-03-14T10:52:31.791Z,2071.006711409396
2024-03-14T11:00:47.382Z,1752.8255033557048
2024-03-14T11:04:17.254Z,1882.5302013422818
2024-03-14T11:07:45.093Z,1807.1677852348994
2024-03-14T11:11:23.239Z,1671.4228187919464
2024-03-14T11:16:10.439Z,1698.724832214765
2024-03-14T11:19:51.165Z,1689.6040268456377
2024-03-14T11:23:24.476Z,1645.8322147651006
2024-03-14T11:26:51.426Z,1603.4697986577182
2024-03-14T11:30:16.561Z,1556.979865771812
2024-03-14T11:33:44.119Z,1557.8859060402685
2024-03-14T11:37:13.951Z,1507.1073825503356
2024-03-14T11:40:41.347Z,1542.523489932886
2024-03-14T11:44:07.280Z,1555.8926174496644
2024-03-14T11:47:36.275Z,1515.1409395973155
2024-03-14T11:51:01.561Z,1494.4026845637584
2024-03-14T11:54:29.183Z,1535.8993288590605
2024-03-14T11:57:57.127Z,1560.9463087248323
2024-03-14T12:01:32.358Z,1677.8657718120805
2024-03-14T12:05:12.220Z,1602.9060402684563
2024-03-14T12:08:38.752Z,1548.0402684563758
2024-03-14T12:12:04.711Z,1557.1006711409395
2024-03-14T12:15:30.545Z,1473.1812080536913
2024-03-14T12:18:57.741Z,1420.6912751677853
2024-03-14T12:22:25.388Z,1426.510067114094
2024-03-14T12:25:49.569Z,1394.5369127516778
2024-03-14T12:34:25.513Z,1385.7986577181207
2024-03-14T12:37:52.401Z,1434.0604026845638
2024-03-14T12:47:16.929Z,1491.0402684563758
2024-03-14T12:51:02.925Z,1536.1006711409395
2024-03-14T12:54:37.577Z,1483.5704697986578
2024-03-14T12:58:08.401Z,1605.0604026845638
2024-03-14T13:01:47.899Z,1557.0604026845638
2024-03-14T13:05:16.297Z,1499.7181208053692
2024-03-14T13:12:31.270Z,1572.543624161074
2024-03-14T13:17:55.046Z,1614.4026845637584
2024-03-14T13:29:12.185Z,1709.6778523489934
2024-03-14T13:32:39.245Z,1795.8724832214766
2024-03-14T13:36:19.853Z,1779.4228187919464
2024-03-14T13:39:51.046Z,1770.1409395973155
2024-03-14T13:43:24.829Z,1913.7986577181207
2024-03-14T13:46:50.308Z,1753.4496644295302
2024-03-14T13:50:21.711Z,1772.979865771812
2024-03-14T13:54:05.895Z,1728.221476510067
2024-03-14T14:07:25.290Z,1659.7852348993288
2024-03-14T14:13:38.109Z,1730.5570469798658
2024-03-14T14:17:03.275Z,1710.3624161073826
2024-03-14T14:20:24.202Z,1675.5704697986578
2024-03-14T14:23:45.142Z,1690.3691275167785
2024-03-14T14:27:07.307Z,1724.5771812080536
2024-03-14T14:30:30.925Z,1585.7718120805368
2024-03-14T14:33:53.419Z,1706.3154362416108
2024-03-14T14:37:16.438Z,1717.5704697986578
2024-03-14T14:42:44.955Z,1681.1073825503356
2024-03-14T14:46:09.081Z,1710.503355704698
2024-03-14T14:49:30.860Z,1818.6040268456377
2024-03-14T14:52:53.414Z,1768.1879194630872
2024-03-14T15:00:17.910Z,1937.3154362416108
2024-03-14T15:03:40.147Z,1842.5838926174497
2024-03-14T15:07:02.961Z,1876.751677852349
2024-03-14T15:10:26.947Z,1984.489932885906
2024-03-14T15:13:49.453Z,1958.758389261745
2024-03-14T15:17:13.104Z,2021.0536912751677
2024-03-14T15:20:39.189Z,1962.7046979865772
2024-03-14T15:24:05.136Z,1893.6644295302012
2024-03-14T15:27:31.267Z,1854.8859060402685
2024-03-14T15:30:56.940Z,2005.2281879194632
2024-03-14T15:35:50.787Z,1933.8120805369128
2024-03-14T15:39:22.604Z,1978.0872483221476
2024-03-14T15:42:49.775Z,2028.6241610738255
2024-03-14T15:46:22.057Z,2062.288590604027
2024-03-14T15:49:49.624Z,2173.489932885906
2024-03-14T15:53:14.200Z,2122.8120805369126
2024-03-14T15:56:40.917Z,2147.5973154362414
2024-03-14T16:00:04.378Z,2198.6577181208054
2024-03-14T16:03:29.365Z,2087.4362416107383
2024-03-14T16:06:54.472Z,2117.6979865771814
2024-03-14T16:10:17.673Z,2082.7449664429532
2024-03-14T16:13:42.321Z,2185.510067114094
2024-03-14T16:17:05.966Z,2240.1543624161072
2024-03-14T16:22:44.916Z,2137.308724832215
2024-03-14T16:26:23.630Z,2237.6577181208054
2024-03-14T16:38:24.144Z,2226.1409395973155
2024-03-14T16:50:21.317Z,2282.8590604026845
2024-03-14T16:53:44.201Z,2261.51677852349
2024-03-14T16:57:07.447Z,2191.953020134228
2024-03-14T17:00:31.589Z,2389.1879194630874
2024-03-14T17:03:53.787Z,2375.818791946309
2024-03-14T17:07:19.274Z,2477.536912751678
2024-03-14T17:10:40.558Z,2616.503355704698
2024-03-14T17:15:57.060Z,2304.9664429530203
2024-03-14T17:19:41.396Z,2168.3959731543623
2024-03-14T17:23:09.740Z,2117.8389261744965
2024-03-14T17:26:33.372Z,2306.1543624161072
2024-03-14T17:29:56.516Z,2247.8859060402683
2024-03-14T17:34:02.470Z,2356.268456375839
2024-03-14T17:37:40.289Z,2360.013422818792
2024-03-14T17:41:01.716Z,2434.1476510067114
2024-03-14T17:47:02.317Z,2441.979865771812
2024-03-14T17:50:23.537Z,2373.3624161073826
2024-03-14T17:53:45.834Z,2333.3758389261743
2024-03-14T18:00:25.134Z,2353.087248322148
2024-03-14T18:06:06.984Z,2424.6845637583892
2024-03-14T18:11:03.307Z,2393.6778523489934
2024-03-14T18:14:26.035Z,2342.8590604026845
2024-03-14T18:17:46.357Z,2260.8523489932886
2024-03-14T18:21:07.759Z,2200.288590604027
2024-03-14T18:24:31.278Z,2382.6845637583892
2024-03-14T18:27:53.292Z,2293.55033557047
2024-03-14T18:34:33.315Z,2387.2348993288592
2024-03-14T18:37:55.781Z,2550.5838926174497
2024-03-14T18:41:17.348Z,2313.5637583892617
2024-03-14T18:44:38.036Z,2355.422818791946
2024-03-14T18:48:01.656Z,2345.9194630872485
2024-03-14T18:51:24.080Z,2435.1543624161072
2024-03-14T18:54:49.491Z,2713.248322147651
2024-03-14T18:58:10.781Z,2611.2080536912754
2024-03-14T19:04:32.191Z,2453.577181208054
2024-03-14T19:07:53.546Z,2508.422818791946
2024-03-14T19:11:14.618Z,2434.8523489932886
2024-03-14T19:14:36.349Z,2176.731543624161
2024-03-14T19:17:58.717Z,2132.0536912751677
2024-03-14T19:21:19.644Z,2083.973154362416
2024-03-14T19:24:43.548Z,2165.6979865771814
2024-03-14T19:28:06.021Z,2113.6711409395975
2024-03-14T19:31:28.238Z,2107.288590604027
2024-03-14T19:34:51.385Z,2196.3825503355706
2024-03-14T19:38:13.460Z,2066.0335570469797
2024-03-14T19:46:06.441Z,2086.6510067114095
2024-03-14T19:58:07.905Z,2077.771812080537
2024-03-14T20:10:02.155Z,2030.4362416107383
2024-03-14T20:13:23.825Z,2003.3154362416108
2024-03-14T20:16:44.365Z,2037.2013422818793
2024-03-14T20:20:05.457Z,2019.1006711409395
2024-03-14T20:23:27.250Z,2004.4832214765102
2024-03-14T20:26:48.530Z,2069.013422818792
2024-03-14T20:30:10.072Z,1980.5838926174497
2024-03-14T20:33:31.007Z,2064.8859060402683
2024-03-14T20:36:51.757Z,2137.912751677852
2024-03-14T20:45:05.934Z,2128.6107382550335
2024-03-14T20:48:28.755Z,2087.557046979866
2024-03-14T20:55:03.725Z,2020.248322147651
2024-03-14T20:59:23.035Z,2068.6711409395975
2024-03-14T21:04:50.749Z,2036.03355704698
2024-03-14T21:08:11.804Z,2052.0
2024-03-14T21:11:32.976Z,2066.0536912751677
2024-03-14T21:14:54.356Z,1963.3489932885907
2024-03-14T21:18:14.421Z,2004.8657718120805
2024-03-14T21:26:09.951Z,2092.3691275167785
2024-03-14T21:29:30.960Z,2002.751677852349
2024-03-14T21:32:52.273Z,2133.5234899328857
2024-03-14T21:36:12.391Z,2047.4697986577182
2024-03-14T21:39:53.967Z,2084.3758389261743
2024-03-14T21:43:15.141Z,2060.979865771812
2024-03-14T21:46:38.194Z,2017.510067114094
2024-03-14T21:49:59.657Z,2137.711409395973
2024-03-14T21:53:24.842Z,2110.771812080537
2024-03-14T22:07:06.920Z,2048.0738255033557
2024-03-14T22:10:29.188Z,2083.087248322148
2024-03-14T22:13:52.382Z,2149.3892617449665
2024-03-14T22:17:14.056Z,2125.469798657718
2024-03-14T22:20:35.875Z,2144.738255033557
2024-03-14T22:23:57.999Z,2244.181208053691
2024-03-14T22:27:21.223Z,2160.7852348993288
2024-03-14T22:30:50.342Z,2103.1610738255035
2024-03-14T22:34:19.475Z,2222.6979865771814
2024-03-14T22:37:45.946Z,2145.221476510067
2024-03-14T22:41:10.385Z,2229.201342281879
2024-03-14T22:44:34.099Z,2194.469798657718
2024-03-14T22:48:17.030Z,2298.221476510067
2024-03-14T22:55:58.814Z,2200.6711409395975
2024-03-14T22:59:20.910Z,2214.3624161073826
2024-03-14T23:02:43.449Z,2154.261744966443
2024-03-14T23:06:04.820Z,2248.731543624161
2024-03-14T23:09:27.801Z,2309.758389261745
2024-03-14T23:12:49.300Z,2289.6442953020132
2024-03-14T23:16:16.963Z,2322.1409395973155
2024-03-14T23:19:41.451Z,2230.2080536912754
2024-03-14T23:23:04.588Z,2202.0
2024-03-14T23:26:33.573Z,2257.046979865772
2024-03-14T23:31:42.169Z,2138.758389261745
2024-03-14T23:35:03.669Z,2335.2080536912754
2024-03-14T23:40:57.545Z,2326.8523489932886
2024-03-14T23:44:19.039Z,2487.0604026845635
2024-03-14T23:47:40.791Z,2406.8657718120803
2024-03-14T23:52:16.718Z,2338.6308724832215
2024-03-14T23:55:38.419Z,2235.181208053691
2024-03-14T23:58:58.293Z,2221.6510067114095
